SWA1887 KBNA-KMYR
Flight info
| Callsign | SWA1887 |
|---|---|
| Flight time | 1h 0m |
| Altitude | 39000 |
| Route | TAZMO3 BURME SPA FLO |
| Aircraft | B738/M-SDE2E3FGHIRWXY/LB1 |
Departure
| Time | 2026-04-25 22:45 |
|---|---|
| Airport | Nashville International Airport (KBNA) |
Arrival
| Time | 2026-04-25 23:46 |
|---|---|
| Airport | Myrtle Beach International Airport (KMYR) |
| Time | Latitude | Longitude | Altitude | Speed | Heading |
|---|---|---|---|---|---|
| 2026-04-25 22:26 | 36.12717 | -86.66680 | 569 ft | 0 kts | 108° |
| 2026-04-25 22:28 | 36.12717 | -86.66681 | 569 ft | 0 kts | 108° |
| 2026-04-25 22:36 | 36.12718 | -86.66685 | 568 ft | 2 kts | 108° |
| 2026-04-25 22:36 | 36.12723 | -86.66705 | 570 ft | 3 kts | 108° |
| 2026-04-25 22:36 | 36.12729 | -86.66724 | 571 ft | 3 kts | 123° |
| 2026-04-25 22:37 | 36.12740 | -86.66739 | 570 ft | 8 kts | 167° |
| 2026-04-25 22:37 | 36.12759 | -86.66739 | 567 ft | 9 kts | 200° |
| 2026-04-25 22:37 | 36.12774 | -86.66731 | 567 ft | 7 kts | 206° |
| 2026-04-25 22:37 | 36.12777 | -86.66729 | 567 ft | 0 kts | 206° |
| 2026-04-25 22:39 | 36.12776 | -86.66730 | 567 ft | 2 kts | 206° |
| 2026-04-25 22:40 | 36.12663 | -86.66828 | 569 ft | 18 kts | 216° |
| 2026-04-25 22:40 | 36.12572 | -86.66894 | 572 ft | 14 kts | 210° |
| 2026-04-25 22:40 | 36.12488 | -86.66953 | 573 ft | 13 kts | 208° |
| 2026-04-25 22:40 | 36.12406 | -86.67003 | 572 ft | 13 kts | 184° |
| 2026-04-25 22:41 | 36.12334 | -86.66931 | 571 ft | 16 kts | 133° |
| 2026-04-25 22:41 | 36.12267 | -86.66768 | 572 ft | 22 kts | 108° |
| 2026-04-25 22:41 | 36.12222 | -86.66591 | 569 ft | 15 kts | 108° |
| 2026-04-25 22:41 | 36.12158 | -86.66557 | 569 ft | 11 kts | 196° |
| 2026-04-25 22:42 | 36.12077 | -86.66588 | 578 ft | 16 kts | 198° |
| 2026-04-25 22:42 | 36.11949 | -86.66639 | 583 ft | 21 kts | 198° |
| 2026-04-25 22:42 | 36.11812 | -86.66694 | 581 ft | 20 kts | 198° |
| 2026-04-25 22:42 | 36.11679 | -86.66747 | 586 ft | 20 kts | 198° |
| 2026-04-25 22:43 | 36.11551 | -86.66799 | 588 ft | 19 kts | 198° |
| 2026-04-25 22:43 | 36.11426 | -86.66849 | 591 ft | 18 kts | 198° |
| 2026-04-25 22:43 | 36.11334 | -86.66881 | 591 ft | 9 kts | 180° |
| 2026-04-25 22:43 | 36.11317 | -86.66870 | 590 ft | 1 kts | 135° |
| 2026-04-25 22:44 | 36.11316 | -86.66868 | 590 ft | 0 kts | 131° |
| 2026-04-25 22:44 | 36.11311 | -86.66860 | 590 ft | 4 kts | 121° |
| 2026-04-25 22:44 | 36.11298 | -86.66779 | 589 ft | 12 kts | 66° |
| 2026-04-25 22:45 | 36.11402 | -86.66717 | 590 ft | 40 kts | 18° |
| 2026-04-25 22:45 | 36.11954 | -86.66496 | 580 ft | 124 kts | 18° |
| 2026-04-25 22:45 | 36.12925 | -86.66115 | 1048 ft | 156 kts | 17° |
| 2026-04-25 22:45 | 36.14067 | -86.65709 | 1650 ft | 182 kts | 18° |
| 2026-04-25 22:46 | 36.15081 | -86.64868 | 2790 ft | 177 kts | 45° |
| 2026-04-25 22:46 | 36.15991 | -86.63679 | 3215 ft | 209 kts | 46° |
| 2026-04-25 22:46 | 36.17055 | -86.62277 | 3581 ft | 234 kts | 45° |
| 2026-04-25 22:46 | 36.18179 | -86.60782 | 3939 ft | 238 kts | 46° |
| 2026-04-25 22:47 | 36.19301 | -86.59288 | 3974 ft | 233 kts | 46° |
| 2026-04-25 22:47 | 36.20405 | -86.57817 | 4127 ft | 238 kts | 46° |
| 2026-04-25 22:47 | 36.21512 | -86.56278 | 4808 ft | 242 kts | 54° |
| 2026-04-25 22:47 | 36.22030 | -86.54290 | 5541 ft | 248 kts | 83° |
| 2026-04-25 22:48 | 36.21879 | -86.52144 | 6297 ft | 254 kts | 99° |
| 2026-04-25 22:48 | 36.21417 | -86.49939 | 6716 ft | 276 kts | 104° |
| 2026-04-25 22:48 | 36.20851 | -86.47609 | 7441 ft | 287 kts | 105° |
| 2026-04-25 22:48 | 36.20258 | -86.45227 | 8371 ft | 291 kts | 105° |
| 2026-04-25 22:49 | 36.19657 | -86.42803 | 9256 ft | 297 kts | 105° |
| 2026-04-25 22:49 | 36.19056 | -86.40358 | 10059 ft | 304 kts | 105° |
| 2026-04-25 22:49 | 36.18430 | -86.37788 | 10595 ft | 322 kts | 106° |
| 2026-04-25 22:49 | 36.17767 | -86.35041 | 11027 ft | 340 kts | 106° |
| 2026-04-25 22:50 | 36.17083 | -86.32193 | 11758 ft | 348 kts | 106° |
| 2026-04-25 22:50 | 36.16615 | -86.30241 | 12316 ft | 352 kts | 106° |
| 2026-04-25 22:50 | 36.15925 | -86.27352 | 13146 ft | 356 kts | 106° |
| 2026-04-25 22:50 | 36.15216 | -86.24384 | 13925 ft | 362 kts | 107° |
| 2026-04-25 22:51 | 36.14499 | -86.21380 | 14695 ft | 366 kts | 107° |
| 2026-04-25 22:51 | 36.13774 | -86.18343 | 15475 ft | 370 kts | 107° |
| 2026-04-25 22:51 | 36.13038 | -86.15260 | 16154 ft | 376 kts | 108° |
| 2026-04-25 22:51 | 36.12290 | -86.12129 | 16822 ft | 382 kts | 108° |
| 2026-04-25 22:52 | 36.11530 | -86.08955 | 17562 ft | 386 kts | 109° |
| 2026-04-25 22:52 | 36.10762 | -86.05746 | 18295 ft | 390 kts | 109° |
| 2026-04-25 22:52 | 36.09984 | -86.02506 | 18882 ft | 396 kts | 109° |
| 2026-04-25 22:52 | 36.09197 | -85.99227 | 19480 ft | 401 kts | 109° |
| 2026-04-25 22:53 | 36.08396 | -85.95894 | 20072 ft | 406 kts | 108° |
| 2026-04-25 22:53 | 36.07586 | -85.92527 | 20657 ft | 411 kts | 108° |
| 2026-04-25 22:53 | 36.06762 | -85.89111 | 21227 ft | 417 kts | 108° |
| 2026-04-25 22:53 | 36.05927 | -85.85653 | 21805 ft | 421 kts | 108° |
| 2026-04-25 22:54 | 36.05085 | -85.82164 | 22392 ft | 426 kts | 108° |
| 2026-04-25 22:54 | 36.04230 | -85.78628 | 22938 ft | 431 kts | 108° |
| 2026-04-25 22:54 | 36.03374 | -85.75092 | 23493 ft | 436 kts | 108° |
| 2026-04-25 22:54 | 36.02501 | -85.71492 | 23978 ft | 439 kts | 108° |
| 2026-04-25 22:55 | 36.01618 | -85.67862 | 24486 ft | 442 kts | 108° |
| 2026-04-25 22:55 | 36.00730 | -85.64211 | 24975 ft | 446 kts | 108° |
| 2026-04-25 22:55 | 35.99832 | -85.60525 | 25449 ft | 449 kts | 108° |
| 2026-04-25 22:55 | 35.98926 | -85.56815 | 25909 ft | 453 kts | 108° |
| 2026-04-25 22:56 | 35.98013 | -85.53081 | 26363 ft | 456 kts | 108° |
| 2026-04-25 22:56 | 35.97087 | -85.49303 | 26813 ft | 459 kts | 108° |
| 2026-04-25 22:56 | 35.96167 | -85.45552 | 27251 ft | 463 kts | 108° |
| 2026-04-25 22:56 | 35.95231 | -85.41739 | 27682 ft | 466 kts | 109° |
| 2026-04-25 22:57 | 35.94284 | -85.37891 | 28039 ft | 471 kts | 109° |
| 2026-04-25 22:57 | 35.93327 | -85.34006 | 28446 ft | 474 kts | 109° |
| 2026-04-25 22:57 | 35.92362 | -85.30097 | 28918 ft | 477 kts | 109° |
| 2026-04-25 22:57 | 35.91396 | -85.26185 | 29334 ft | 480 kts | 109° |
| 2026-04-25 22:58 | 35.90409 | -85.22198 | 29742 ft | 483 kts | 109° |
| 2026-04-25 22:58 | 35.89424 | -85.18226 | 30116 ft | 486 kts | 109° |
| 2026-04-25 22:58 | 35.88430 | -85.14223 | 30457 ft | 488 kts | 109° |
| 2026-04-25 22:58 | 35.87439 | -85.10239 | 30815 ft | 490 kts | 109° |
| 2026-04-25 22:59 | 35.86428 | -85.06180 | 31163 ft | 491 kts | 110° |
| 2026-04-25 22:59 | 35.85421 | -85.02142 | 31416 ft | 492 kts | 109° |
| 2026-04-25 22:59 | 35.84415 | -84.98112 | 31809 ft | 493 kts | 110° |
| 2026-04-25 22:59 | 35.83402 | -84.94066 | 32151 ft | 494 kts | 110° |
| 2026-04-25 23:00 | 35.82386 | -84.90011 | 32484 ft | 495 kts | 110° |
| 2026-04-25 23:00 | 35.81370 | -84.85963 | 32909 ft | 493 kts | 110° |
| 2026-04-25 23:00 | 35.80356 | -84.81929 | 33413 ft | 490 kts | 110° |
| 2026-04-25 23:00 | 35.79351 | -84.77936 | 33923 ft | 486 kts | 110° |
| 2026-04-25 23:01 | 35.78349 | -84.73959 | 34306 ft | 485 kts | 110° |
| 2026-04-25 23:01 | 35.77358 | -84.70038 | 34610 ft | 485 kts | 110° |
| 2026-04-25 23:01 | 35.76351 | -84.66061 | 34886 ft | 485 kts | 110° |
| 2026-04-25 23:01 | 35.75345 | -84.62094 | 35301 ft | 482 kts | 110° |
| 2026-04-25 23:02 | 35.74359 | -84.58210 | 35723 ft | 479 kts | 110° |
| 2026-04-25 23:02 | 35.73366 | -84.54300 | 36043 ft | 478 kts | 110° |
| 2026-04-25 23:02 | 35.72369 | -84.50388 | 36299 ft | 479 kts | 110° |
| 2026-04-25 23:02 | 35.71372 | -84.46478 | 36565 ft | 479 kts | 111° |
| 2026-04-25 23:03 | 35.70371 | -84.42562 | 36898 ft | 478 kts | 111° |
| 2026-04-25 23:03 | 35.69373 | -84.38660 | 37234 ft | 476 kts | 111° |
| 2026-04-25 23:03 | 35.68378 | -84.34774 | 37506 ft | 476 kts | 111° |
| 2026-04-25 23:03 | 35.67382 | -84.30890 | 37792 ft | 475 kts | 111° |
| 2026-04-25 23:04 | 35.66400 | -84.27068 | 38102 ft | 473 kts | 112° |
| 2026-04-25 23:04 | 35.65413 | -84.23228 | 38524 ft | 469 kts | 112° |
| 2026-04-25 23:04 | 35.64429 | -84.19405 | 38755 ft | 469 kts | 112° |
| 2026-04-25 23:04 | 35.63441 | -84.15580 | 38858 ft | 471 kts | 112° |
| 2026-04-25 23:05 | 35.61440 | -84.07856 | 38893 ft | 475 kts | 112° |
| 2026-04-25 23:05 | 35.59434 | -84.00122 | 38882 ft | 472 kts | 111° |
| 2026-04-25 23:06 | 35.57455 | -83.92505 | 38881 ft | 469 kts | 111° |
| 2026-04-25 23:06 | 35.55470 | -83.84898 | 38879 ft | 466 kts | 111° |
| 2026-04-25 23:07 | 35.53486 | -83.77318 | 38889 ft | 466 kts | 111° |
| 2026-04-25 23:07 | 35.51498 | -83.69745 | 38894 ft | 466 kts | 112° |
| 2026-04-25 23:08 | 35.49497 | -83.62148 | 38901 ft | 468 kts | 112° |
| 2026-04-25 23:08 | 35.47485 | -83.54526 | 38897 ft | 471 kts | 112° |
| 2026-04-25 23:09 | 35.45466 | -83.46900 | 38891 ft | 473 kts | 112° |
| 2026-04-25 23:09 | 35.43423 | -83.39204 | 38900 ft | 474 kts | 112° |
| 2026-04-25 23:10 | 35.41371 | -83.31496 | 38905 ft | 475 kts | 112° |
| 2026-04-25 23:10 | 35.39294 | -83.23723 | 38902 ft | 483 kts | 112° |
| 2026-04-25 23:11 | 35.37177 | -83.15823 | 38911 ft | 491 kts | 112° |
| 2026-04-25 23:11 | 35.34997 | -83.07710 | 38905 ft | 497 kts | 112° |
| 2026-04-25 23:12 | 35.32830 | -82.99659 | 38905 ft | 501 kts | 112° |
| 2026-04-25 23:12 | 35.30640 | -82.91549 | 38899 ft | 500 kts | 112° |
| 2026-04-25 23:13 | 35.28464 | -82.83508 | 38884 ft | 494 kts | 112° |
| 2026-04-25 23:13 | 35.26286 | -82.75505 | 38902 ft | 497 kts | 113° |
| 2026-04-25 23:14 | 35.24093 | -82.67470 | 38933 ft | 499 kts | 113° |
| 2026-04-25 23:14 | 35.21883 | -82.59387 | 38935 ft | 502 kts | 113° |
| 2026-04-25 23:15 | 35.19656 | -82.51266 | 38928 ft | 504 kts | 113° |
| 2026-04-25 23:15 | 35.17431 | -82.43178 | 38896 ft | 506 kts | 113° |
| 2026-04-25 23:16 | 35.15179 | -82.35014 | 38884 ft | 507 kts | 114° |
| 2026-04-25 23:16 | 35.12916 | -82.26835 | 38901 ft | 507 kts | 114° |
| 2026-04-25 23:17 | 35.10650 | -82.18669 | 38905 ft | 508 kts | 114° |
| 2026-04-25 23:17 | 35.08385 | -82.10533 | 38897 ft | 508 kts | 114° |
| 2026-04-25 23:18 | 35.06261 | -82.02923 | 38903 ft | 508 kts | 114° |
| 2026-04-25 23:18 | 35.04048 | -81.95016 | 38910 ft | 511 kts | 114° |
| 2026-04-25 23:19 | 35.01572 | -81.86935 | 38909 ft | 510 kts | 117° |
| 2026-04-25 23:19 | 34.98809 | -81.78974 | 38897 ft | 508 kts | 118° |
| 2026-04-25 23:20 | 34.96026 | -81.71051 | 38876 ft | 507 kts | 118° |
| 2026-04-25 23:20 | 34.93282 | -81.63136 | 38877 ft | 507 kts | 117° |
| 2026-04-25 23:21 | 34.90557 | -81.55217 | 38889 ft | 507 kts | 117° |
| 2026-04-25 23:21 | 34.87838 | -81.47321 | 38899 ft | 508 kts | 117° |
| 2026-04-25 23:22 | 34.85093 | -81.39374 | 38915 ft | 508 kts | 117° |
| 2026-04-25 23:23 | 34.80963 | -81.27464 | 38924 ft | 509 kts | 117° |
| 2026-04-25 23:23 | 34.78197 | -81.19515 | 38923 ft | 510 kts | 117° |
| 2026-04-25 23:24 | 34.75421 | -81.11554 | 38926 ft | 511 kts | 117° |
| 2026-04-25 23:24 | 34.73104 | -81.04929 | 38917 ft | 512 kts | 117° |
| 2026-04-25 23:25 | 34.70310 | -80.96953 | 38916 ft | 512 kts | 117° |
| 2026-04-25 23:25 | 34.67505 | -80.88969 | 38915 ft | 513 kts | 117° |
| 2026-04-25 23:26 | 34.64696 | -80.80993 | 38917 ft | 514 kts | 117° |
| 2026-04-25 23:26 | 34.61871 | -80.72994 | 38900 ft | 515 kts | 117° |
| 2026-04-25 23:27 | 34.59038 | -80.64989 | 38891 ft | 516 kts | 117° |
| 2026-04-25 23:27 | 34.56212 | -80.57027 | 38856 ft | 516 kts | 117° |
| 2026-04-25 23:28 | 34.53345 | -80.48967 | 38853 ft | 518 kts | 117° |
| 2026-04-25 23:28 | 34.50483 | -80.40944 | 38860 ft | 518 kts | 117° |
| 2026-04-25 23:28 | 34.49048 | -80.36926 | 38384 ft | 516 kts | 117° |
| 2026-04-25 23:29 | 34.47631 | -80.32960 | 37489 ft | 510 kts | 117° |
| 2026-04-25 23:29 | 34.46222 | -80.29024 | 36507 ft | 507 kts | 117° |
| 2026-04-25 23:29 | 34.44823 | -80.25122 | 35516 ft | 504 kts | 117° |
| 2026-04-25 23:29 | 34.43428 | -80.21236 | 34521 ft | 500 kts | 117° |
| 2026-04-25 23:30 | 34.42063 | -80.17441 | 33493 ft | 496 kts | 117° |
| 2026-04-25 23:30 | 34.40682 | -80.13605 | 32171 ft | 497 kts | 117° |
| 2026-04-25 23:30 | 34.39292 | -80.09754 | 30723 ft | 501 kts | 116° |
| 2026-04-25 23:30 | 34.37890 | -80.05873 | 29226 ft | 504 kts | 116° |
| 2026-04-25 23:31 | 34.36485 | -80.01985 | 27692 ft | 504 kts | 116° |
| 2026-04-25 23:31 | 34.35082 | -79.98104 | 26262 ft | 502 kts | 116° |
| 2026-04-25 23:31 | 34.33683 | -79.94238 | 24911 ft | 498 kts | 116° |
| 2026-04-25 23:31 | 34.32295 | -79.90406 | 23665 ft | 494 kts | 116° |
| 2026-04-25 23:32 | 34.30920 | -79.86614 | 22263 ft | 488 kts | 116° |
| 2026-04-25 23:32 | 34.29565 | -79.82884 | 20917 ft | 481 kts | 116° |
| 2026-04-25 23:32 | 34.28226 | -79.79204 | 19647 ft | 473 kts | 115° |
| 2026-04-25 23:32 | 34.26911 | -79.75595 | 18561 ft | 463 kts | 115° |
| 2026-04-25 23:33 | 34.25630 | -79.72081 | 17694 ft | 448 kts | 115° |
| 2026-04-25 23:33 | 34.24404 | -79.68718 | 17082 ft | 427 kts | 115° |
| 2026-04-25 23:33 | 34.23218 | -79.65473 | 16179 ft | 416 kts | 115° |
| 2026-04-25 23:33 | 34.22049 | -79.62296 | 15128 ft | 411 kts | 115° |
| 2026-04-25 23:34 | 34.20885 | -79.59165 | 14145 ft | 405 kts | 115° |
| 2026-04-25 23:34 | 34.19735 | -79.56085 | 13139 ft | 399 kts | 115° |
| 2026-04-25 23:34 | 34.18600 | -79.53052 | 12115 ft | 393 kts | 115° |
| 2026-04-25 23:34 | 34.17479 | -79.50065 | 11157 ft | 387 kts | 115° |
| 2026-04-25 23:35 | 34.16382 | -79.47141 | 10563 ft | 376 kts | 115° |
| 2026-04-25 23:35 | 34.15318 | -79.44305 | 9978 ft | 378 kts | 115° |
| 2026-04-25 23:35 | 34.14226 | -79.41397 | 9353 ft | 382 kts | 115° |
| 2026-04-25 23:35 | 34.13127 | -79.38467 | 8708 ft | 380 kts | 115° |
| 2026-04-25 23:36 | 34.12044 | -79.35574 | 8081 ft | 375 kts | 115° |
| 2026-04-25 23:36 | 34.10978 | -79.32711 | 7465 ft | 372 kts | 115° |
| 2026-04-25 23:36 | 34.09925 | -79.29878 | 6866 ft | 369 kts | 115° |
| 2026-04-25 23:36 | 34.08876 | -79.27053 | 6272 ft | 367 kts | 115° |
| 2026-04-25 23:37 | 34.07841 | -79.24251 | 5642 ft | 364 kts | 115° |
| 2026-04-25 23:37 | 34.06825 | -79.21473 | 5029 ft | 358 kts | 115° |
| 2026-04-25 23:37 | 34.05813 | -79.18728 | 4399 ft | 345 kts | 119° |
| 2026-04-25 23:37 | 34.04578 | -79.16367 | 3781 ft | 331 kts | 128° |
| 2026-04-25 23:38 | 34.03241 | -79.14175 | 3269 ft | 318 kts | 130° |
| 2026-04-25 23:38 | 34.01927 | -79.12141 | 3083 ft | 297 kts | 132° |
| 2026-04-25 23:38 | 34.00688 | -79.10256 | 2984 ft | 276 kts | 132° |
| 2026-04-25 23:38 | 33.99543 | -79.08509 | 2967 ft | 255 kts | 132° |
| 2026-04-25 23:39 | 33.98503 | -79.06910 | 2978 ft | 230 kts | 132° |
| 2026-04-25 23:39 | 33.97580 | -79.05457 | 2962 ft | 207 kts | 133° |
| 2026-04-25 23:39 | 33.96737 | -79.04096 | 2686 ft | 200 kts | 132° |
| 2026-04-25 23:39 | 33.95927 | -79.02773 | 2413 ft | 192 kts | 132° |
| 2026-04-25 23:40 | 33.95159 | -79.01511 | 2102 ft | 187 kts | 132° |
| 2026-04-25 23:40 | 33.94377 | -79.00249 | 2024 ft | 186 kts | 136° |
| 2026-04-25 23:40 | 33.93324 | -78.99498 | 1999 ft | 174 kts | 172° |
| 2026-04-25 23:40 | 33.92132 | -78.99155 | 1998 ft | 178 kts | 170° |
| 2026-04-25 23:41 | 33.90922 | -78.98782 | 1990 ft | 175 kts | 169° |
| 2026-04-25 23:41 | 33.89748 | -78.98392 | 1974 ft | 175 kts | 169° |
| 2026-04-25 23:41 | 33.88582 | -78.98039 | 1984 ft | 172 kts | 171° |
| 2026-04-25 23:41 | 33.87439 | -78.97730 | 1976 ft | 168 kts | 172° |
| 2026-04-25 23:42 | 33.86290 | -78.97434 | 1970 ft | 172 kts | 171° |
| 2026-04-25 23:42 | 33.85105 | -78.97135 | 2000 ft | 175 kts | 171° |
| 2026-04-25 23:42 | 33.83930 | -78.96838 | 1985 ft | 166 kts | 173° |
| 2026-04-25 23:42 | 33.82827 | -78.96560 | 1957 ft | 159 kts | 173° |
| 2026-04-25 23:43 | 33.81736 | -78.96288 | 1977 ft | 162 kts | 172° |
| 2026-04-25 23:43 | 33.80619 | -78.96015 | 1987 ft | 164 kts | 172° |
| 2026-04-25 23:43 | 33.79514 | -78.95732 | 1976 ft | 165 kts | 172° |
| 2026-04-25 23:43 | 33.78397 | -78.95450 | 1819 ft | 160 kts | 172° |
| 2026-04-25 23:44 | 33.77353 | -78.95186 | 1609 ft | 146 kts | 172° |
| 2026-04-25 23:44 | 33.76399 | -78.94947 | 1419 ft | 133 kts | 173° |
| 2026-04-25 23:44 | 33.75506 | -78.94724 | 1258 ft | 129 kts | 171° |
| 2026-04-25 23:44 | 33.74614 | -78.94502 | 1082 ft | 136 kts | 172° |
| 2026-04-25 23:45 | 33.73658 | -78.94257 | 942 ft | 143 kts | 172° |
| 2026-04-25 23:45 | 33.72649 | -78.94011 | 748 ft | 153 kts | 169° |
| 2026-04-25 23:45 | 33.71585 | -78.93734 | 565 ft | 158 kts | 170° |
| 2026-04-25 23:45 | 33.70576 | -78.93484 | 358 ft | 137 kts | 168° |
| 2026-04-25 23:46 | 33.69664 | -78.93256 | 141 ft | 134 kts | 168° |
| 2026-04-25 23:46 | 33.68728 | -78.93021 | 33 ft | 133 kts | 168° |
| 2026-04-25 23:46 | 33.68159 | -78.92879 | 30 ft | 25 kts | 168° |
| 2026-04-25 23:46 | 33.67974 | -78.92832 | 32 ft | 31 kts | 168° |
| 2026-04-25 23:47 | 33.67819 | -78.92793 | 29 ft | 22 kts | 168° |
| 2026-04-25 23:47 | 33.67685 | -78.92752 | 31 ft | 20 kts | 159° |
| 2026-04-25 23:47 | 33.67491 | -78.92592 | 31 ft | 118 kts | 139° |
| 2026-04-25 23:47 | 33.67253 | -78.92418 | 31 ft | 11 kts | 247° |
| 2026-04-25 23:48 | 33.67290 | -78.92463 | 31 ft | 15 kts | 348° |
| 2026-04-25 23:48 | 33.67407 | -78.92491 | 29 ft | 18 kts | 349° |
| 2026-04-25 23:48 | 33.67533 | -78.92521 | 31 ft | 18 kts | 349° |
| 2026-04-25 23:48 | 33.67655 | -78.92550 | 31 ft | 18 kts | 349° |
| 2026-04-25 23:49 | 33.67775 | -78.92579 | 31 ft | 18 kts | 348° |
| 2026-04-25 23:49 | 33.67901 | -78.92608 | 30 ft | 18 kts | 347° |
| 2026-04-25 23:49 | 33.68025 | -78.92640 | 31 ft | 18 kts | 348° |
| 2026-04-25 23:49 | 33.68150 | -78.92669 | 31 ft | 13 kts | 6° |
| 2026-04-25 23:50 | 33.68182 | -78.92569 | 31 ft | 14 kts | 71° |
| 2026-04-25 23:50 | 33.68249 | -78.92511 | 31 ft | 12 kts | 62° |
| 2026-04-25 23:50 | 33.68253 | -78.92421 | 31 ft | 6 kts | 92° |
| 2026-04-25 23:50 | 33.68253 | -78.92415 | 31 ft | 0 kts | 92° |
| 2026-04-25 23:55 | 33.68253 | -78.92416 | 31 ft | 0 kts | 92° |